sensor_id;sensor_type;location;lat;lon;timestamp;pressure;altitude;pressure_sealevel;temperature;humidity
35507;BME280;36461;52.018;21.036;2023-03-14T00:01:18;98765.55;;;7.61;75.22
35507;BME280;36461;52.018;21.036;2023-03-14T00:03:48;98763.89;;;7.56;75.41
35507;BME280;36461;52.018;21.036;2023-03-14T00:06:17;98761.42;;;7.49;75.44
35507;BME280;36461;52.018;21.036;2023-03-14T00:08:47;98758.94;;;7.44;75.62
35507;BME280;36461;52.018;21.036;2023-03-14T00:11:18;98757.28;;;7.38;75.83
35507;BME280;36461;52.018;21.036;2023-03-14T00:13:47;98755.31;;;7.36;75.86
35507;BME280;36461;52.018;21.036;2023-03-14T00:16:16;98752.42;;;7.35;75.94
35507;BME280;36461;52.018;21.036;2023-03-14T00:18:45;98743.60;;;7.36;76.14
35507;BME280;36461;52.018;21.036;2023-03-14T00:21:13;98741.33;;;7.37;76.06
35507;BME280;36461;52.018;21.036;2023-03-14T00:23:42;98743.96;;;7.36;76.24
35507;BME280;36461;52.018;21.036;2023-03-14T00:26:16;98739.97;;;7.37;76.17
35507;BME280;36461;52.018;21.036;2023-03-14T00:28:45;98729.61;;;7.37;76.16
35507;BME280;36461;52.018;21.036;2023-03-14T00:31:14;98724.95;;;7.38;76.27
35507;BME280;36461;52.018;21.036;2023-03-14T00:33:44;98717.37;;;7.34;76.14
35507;BME280;36461;52.018;21.036;2023-03-14T00:36:15;98717.88;;;7.31;75.85
35507;BME280;36461;52.018;21.036;2023-03-14T00:38:46;98725.58;;;7.28;76.09
35507;BME280;36461;52.018;21.036;2023-03-14T00:41:17;98719.53;;;7.25;76.03
35507;BME280;36461;52.018;21.036;2023-03-14T00:43:45;98707.95;;;7.22;75.95
35507;BME280;36461;52.018;21.036;2023-03-14T00:46:13;98705.50;;;7.19;75.76
35507;BME280;36461;52.018;21.036;2023-03-14T00:48:47;98693.02;;;7.17;75.76
35507;BME280;36461;52.018;21.036;2023-03-14T00:51:15;98693.37;;;7.17;75.83
35507;BME280;36461;52.018;21.036;2023-03-14T00:53:44;98684.31;;;7.16;75.78
35507;BME280;36461;52.018;21.036;2023-03-14T00:56:13;98680.02;;;7.15;75.75
35507;BME280;36461;52.018;21.036;2023-03-14T00:58:42;98676.25;;;7.15;75.70
35507;BME280;36461;52.018;21.036;2023-03-14T01:01:16;98669.39;;;7.15;75.68
35507;BME280;36461;52.018;21.036;2023-03-14T01:03:45;98669.61;;;7.14;75.60
35507;BME280;36461;52.018;21.036;2023-03-14T01:06:21;98669.16;;;7.12;75.50
35507;BME280;36461;52.018;21.036;2023-03-14T01:08:50;98662.00;;;7.11;75.54
35507;BME280;36461;52.018;21.036;2023-03-14T01:11:26;98653.80;;;7.10;75.45
35507;BME280;36461;52.018;21.036;2023-03-14T01:13:55;98647.89;;;7.07;75.27
35507;BME280;36461;52.018;21.036;2023-03-14T01:16:25;98645.09;;;7.04;75.29
35507;BME280;36461;52.018;21.036;2023-03-14T01:18:54;98637.45;;;7.02;75.37
35507;BME280;36461;52.018;21.036;2023-03-14T01:21:28;98635.61;;;7.01;75.31
35507;BME280;36461;52.018;21.036;2023-03-14T01:23:57;98635.11;;;7.01;75.27
35507;BME280;36461;52.018;21.036;2023-03-14T01:26:29;98633.51;;;7.02;75.22
35507;BME280;36461;52.018;21.036;2023-03-14T01:28:57;98634.66;;;7.03;75.24
35507;BME280;36461;52.018;21.036;2023-03-14T01:31:26;98628.88;;;7.01;75.10
35507;BME280;36461;52.018;21.036;2023-03-14T01:33:54;98632.46;;;6.99;74.99
35507;BME280;36461;52.018;21.036;2023-03-14T01:36:22;98631.89;;;6.96;75.00
35507;BME280;36461;52.018;21.036;2023-03-14T01:38:51;98628.58;;;6.93;75.04
35507;BME280;36461;52.018;21.036;2023-03-14T01:41:24;98631.55;;;6.88;74.87
35507;BME280;36461;52.018;21.036;2023-03-14T01:43:54;98636.69;;;6.84;74.93
35507;BME280;36461;52.018;21.036;2023-03-14T01:46:29;98639.06;;;6.81;74.82
35507;BME280;36461;52.018;21.036;2023-03-14T01:51:42;98639.15;;;6.72;75.00
35507;BME280;36461;52.018;21.036;2023-03-14T01:56:51;98637.37;;;6.69;75.08
35507;BME280;36461;52.018;21.036;2023-03-14T01:59:21;98631.92;;;6.68;74.99
35507;BME280;36461;52.018;21.036;2023-03-14T02:01:50;98614.99;;;6.70;74.86
35507;BME280;36461;52.018;21.036;2023-03-14T02:04:19;98626.48;;;6.71;74.83
35507;BME280;36461;52.018;21.036;2023-03-14T02:10:11;98625.41;;;6.64;74.57
35507;BME280;36461;52.018;21.036;2023-03-14T02:12:39;98624.05;;;6.59;74.53
35507;BME280;36461;52.018;21.036;2023-03-14T02:15:22;98621.31;;;6.55;74.60
35507;BME280;36461;52.018;21.036;2023-03-14T02:17:57;98617.95;;;6.49;74.67
35507;BME280;36461;52.018;21.036;2023-03-14T02:24:08;98611.90;;;6.38;74.76
35507;BME280;36461;52.018;21.036;2023-03-14T02:27:04;98611.76;;;6.30;74.52
35507;BME280;36461;52.018;21.036;2023-03-14T02:29:35;98606.55;;;6.27;74.74
35507;BME280;36461;52.018;21.036;2023-03-14T02:32:04;98596.71;;;6.25;74.73
35507;BME280;36461;52.018;21.036;2023-03-14T02:34:33;98589.89;;;6.23;74.56
35507;BME280;36461;52.018;21.036;2023-03-14T02:37:02;98579.44;;;6.23;74.66
35507;BME280;36461;52.018;21.036;2023-03-14T02:39:43;98567.95;;;6.22;74.71
35507;BME280;36461;52.018;21.036;2023-03-14T02:42:18;98563.40;;;6.20;74.84
35507;BME280;36461;52.018;21.036;2023-03-14T02:47:33;98555.78;;;6.21;74.96
35507;BME280;36461;52.018;21.036;2023-03-14T02:50:04;98553.36;;;6.21;74.91
35507;BME280;36461;52.018;21.036;2023-03-14T02:52:34;98552.30;;;6.23;75.04
35507;BME280;36461;52.018;21.036;2023-03-14T02:55:02;98547.64;;;6.23;75.21
35507;BME280;36461;52.018;21.036;2023-03-14T02:57:32;98542.62;;;6.24;75.10
35507;BME280;36461;52.018;21.036;2023-03-14T03:00:01;98544.62;;;6.25;75.13
35507;BME280;36461;52.018;21.036;2023-03-14T03:02:32;98539.36;;;6.24;74.86
35507;BME280;36461;52.018;21.036;2023-03-14T03:05:00;98545.97;;;6.22;74.85
35507;BME280;36461;52.018;21.036;2023-03-14T03:07:28;98551.11;;;6.18;74.73
35507;BME280;36461;52.018;21.036;2023-03-14T03:09:56;98559.84;;;6.15;74.96
35507;BME280;36461;52.018;21.036;2023-03-14T03:12:24;98557.09;;;6.11;74.96
35507;BME280;36461;52.018;21.036;2023-03-14T03:14:52;98559.33;;;6.07;75.01
35507;BME280;36461;52.018;21.036;2023-03-14T03:17:20;98557.77;;;6.03;75.07
35507;BME280;36461;52.018;21.036;2023-03-14T03:19:48;98553.03;;;6.01;75.07
35507;BME280;36461;52.018;21.036;2023-03-14T03:22:17;98550.08;;;6.02;75.02
35507;BME280;36461;52.018;21.036;2023-03-14T03:24:45;98547.61;;;6.04;75.12
35507;BME280;36461;52.018;21.036;2023-03-14T03:27:13;98545.16;;;6.04;75.34
35507;BME280;36461;52.018;21.036;2023-03-14T03:29:41;98543.05;;;6.06;75.23
35507;BME280;36461;52.018;21.036;2023-03-14T03:32:09;98538.12;;;6.05;75.09
35507;BME280;36461;52.018;21.036;2023-03-14T03:34:37;98539.00;;;6.01;75.13
35507;BME280;36461;52.018;21.036;2023-03-14T03:37:06;98540.06;;;5.95;75.08
35507;BME280;36461;52.018;21.036;2023-03-14T03:39:36;98543.27;;;5.92;75.13
35507;BME280;36461;52.018;21.036;2023-03-14T03:42:04;98548.25;;;5.93;75.37
35507;BME280;36461;52.018;21.036;2023-03-14T03:44:32;98542.61;;;5.92;75.41
35507;BME280;36461;52.018;21.036;2023-03-14T03:47:02;98537.08;;;5.93;75.37
35507;BME280;36461;52.018;21.036;2023-03-14T03:49:31;98537.48;;;5.95;75.34
35507;BME280;36461;52.018;21.036;2023-03-14T03:51:59;98540.37;;;6.00;75.57
35507;BME280;36461;52.018;21.036;2023-03-14T03:54:28;98537.58;;;6.06;75.64
35507;BME280;36461;52.018;21.036;2023-03-14T03:56:57;98534.71;;;6.08;75.35
35507;BME280;36461;52.018;21.036;2023-03-14T03:59:25;98528.60;;;6.07;75.21
35507;BME280;36461;52.018;21.036;2023-03-14T04:01:53;98525.48;;;6.03;75.35
35507;BME280;36461;52.018;21.036;2023-03-14T04:04:21;98514.52;;;5.98;74.98
35507;BME280;36461;52.018;21.036;2023-03-14T04:06:49;98516.77;;;5.94;74.91
35507;BME280;36461;52.018;21.036;2023-03-14T04:09:18;98514.79;;;5.88;74.84
35507;BME280;36461;52.018;21.036;2023-03-14T04:11:50;98511.79;;;5.82;75.22
35507;BME280;36461;52.018;21.036;2023-03-14T04:14:21;98515.63;;;5.76;74.97
35507;BME280;36461;52.018;21.036;2023-03-14T04:16:57;98513.82;;;5.70;74.98
35507;BME280;36461;52.018;21.036;2023-03-14T04:19:25;98519.16;;;5.66;74.81
35507;BME280;36461;52.018;21.036;2023-03-14T04:21:55;98525.09;;;5.63;75.02
35507;BME280;36461;52.018;21.036;2023-03-14T04:24:25;98533.42;;;5.61;74.91
35507;BME280;36461;52.018;21.036;2023-03-14T04:26:54;98538.45;;;5.60;74.84
35507;BME280;36461;52.018;21.036;2023-03-14T04:29:22;98529.23;;;5.59;74.85
35507;BME280;36461;52.018;21.036;2023-03-14T04:31:51;98528.05;;;5.58;75.05
35507;BME280;36461;52.018;21.036;2023-03-14T04:34:19;98531.50;;;5.58;74.92
35507;BME280;36461;52.018;21.036;2023-03-14T04:36:52;98535.84;;;5.61;75.31
35507;BME280;36461;52.018;21.036;2023-03-14T04:39:29;98534.88;;;5.63;75.30
35507;BME280;36461;52.018;21.036;2023-03-14T04:42:06;98535.48;;;5.65;75.32
35507;BME280;36461;52.018;21.036;2023-03-14T04:44:37;98536.64;;;5.66;75.29
35507;BME280;36461;52.018;21.036;2023-03-14T04:47:06;98528.91;;;5.67;75.22
35507;BME280;36461;52.018;21.036;2023-03-14T04:49:34;98517.41;;;5.70;75.23
35507;BME280;36461;52.018;21.036;2023-03-14T04:52:03;98507.31;;;5.74;75.25
35507;BME280;36461;52.018;21.036;2023-03-14T04:54:32;98500.66;;;5.77;75.28
35507;BME280;36461;52.018;21.036;2023-03-14T04:57:00;98498.34;;;5.79;75.31
35507;BME280;36461;52.018;21.036;2023-03-14T04:59:31;98495.50;;;5.81;75.09
35507;BME280;36461;52.018;21.036;2023-03-14T05:02:08;98493.30;;;5.84;74.90
35507;BME280;36461;52.018;21.036;2023-03-14T05:04:44;98493.10;;;5.85;74.99
35507;BME280;36461;52.018;21.036;2023-03-14T05:07:32;98485.92;;;5.88;74.97
35507;BME280;36461;52.018;21.036;2023-03-14T05:10:20;98478.71;;;5.92;74.96
35507;BME280;36461;52.018;21.036;2023-03-14T05:13:10;98469.28;;;5.96;74.83
35507;BME280;36461;52.018;21.036;2023-03-14T05:16:13;98452.59;;;6.02;74.80
35507;BME280;36461;52.018;21.036;2023-03-14T05:19:02;98449.99;;;6.02;74.63
35507;BME280;36461;52.018;21.036;2023-03-14T05:21:40;98464.67;;;6.04;74.56
35507;BME280;36461;52.018;21.036;2023-03-14T05:24:26;98460.06;;;6.07;74.65
35507;BME280;36461;52.018;21.036;2023-03-14T05:27:13;98461.64;;;6.14;74.72
35507;BME280;36461;52.018;21.036;2023-03-14T05:30:05;98468.99;;;6.22;74.93
35507;BME280;36461;52.018;21.036;2023-03-14T05:33:05;98478.13;;;6.29;75.02
35507;BME280;36461;52.018;21.036;2023-03-14T05:35:43;98467.73;;;6.31;74.83
35507;BME280;36461;52.018;21.036;2023-03-14T05:38:34;98468.86;;;6.33;74.67
35507;BME280;36461;52.018;21.036;2023-03-14T05:41:15;98461.76;;;6.31;74.43
35507;BME280;36461;52.018;21.036;2023-03-14T05:43:58;98457.71;;;6.25;74.36
35507;BME280;36461;52.018;21.036;2023-03-14T05:46:38;98445.70;;;6.20;74.51
35507;BME280;36461;52.018;21.036;2023-03-14T05:49:15;98451.58;;;6.16;74.33
35507;BME280;36461;52.018;21.036;2023-03-14T05:52:19;98439.41;;;6.12;74.44
35507;BME280;36461;52.018;21.036;2023-03-14T05:55:05;98434.19;;;6.06;74.39
35507;BME280;36461;52.018;21.036;2023-03-14T05:57:53;98429.36;;;6.02;74.42
35507;BME280;36461;52.018;21.036;2023-03-14T06:00:41;98423.11;;;6.00;74.55
35507;BME280;36461;52.018;21.036;2023-03-14T06:03:18;98410.86;;;5.98;74.34
35507;BME280;36461;52.018;21.036;2023-03-14T06:05:50;98416.25;;;5.95;74.41
35507;BME280;36461;52.018;21.036;2023-03-14T06:08:19;98413.36;;;5.95;74.68
35507;BME280;36461;52.018;21.036;2023-03-14T06:10:47;98410.70;;;5.97;74.88
35507;BME280;36461;52.018;21.036;2023-03-14T06:13:16;98411.45;;;6.03;74.90
35507;BME280;36461;52.018;21.036;2023-03-14T06:15:44;98406.84;;;6.11;74.89
35507;BME280;36461;52.018;21.036;2023-03-14T06:18:13;98399.92;;;6.23;74.89
35507;BME280;36461;52.018;21.036;2023-03-14T06:20:42;98393.21;;;6.45;75.12
35507;BME280;36461;52.018;21.036;2023-03-14T06:23:12;98390.27;;;6.74;75.18
35507;BME280;36461;52.018;21.036;2023-03-14T06:25:40;98384.03;;;7.00;74.88
35507;BME280;36461;52.018;21.036;2023-03-14T06:28:08;98387.56;;;7.22;74.43
35507;BME280;36461;52.018;21.036;2023-03-14T06:30:36;98383.23;;;7.44;73.94
35507;BME280;36461;52.018;21.036;2023-03-14T06:33:04;98379.37;;;7.65;73.56
35507;BME280;36461;52.018;21.036;2023-03-14T06:35:32;98371.55;;;7.86;73.29
35507;BME280;36461;52.018;21.036;2023-03-14T06:38:00;98370.34;;;8.05;72.86
35507;BME280;36461;52.018;21.036;2023-03-14T06:40:28;98365.61;;;8.23;72.33
35507;BME280;36461;52.018;21.036;2023-03-14T06:43:04;98365.36;;;8.40;72.28
35507;BME280;36461;52.018;21.036;2023-03-14T06:45:32;98360.88;;;8.53;71.53
35507;BME280;36461;52.018;21.036;2023-03-14T06:48:02;98359.32;;;8.65;71.26
35507;BME280;36461;52.018;21.036;2023-03-14T06:50:38;98357.31;;;8.79;70.99
35507;BME280;36461;52.018;21.036;2023-03-14T06:53:06;98355.00;;;8.93;70.74
35507;BME280;36461;52.018;21.036;2023-03-14T06:55:35;98353.79;;;9.11;70.22
35507;BME280;36461;52.018;21.036;2023-03-14T06:58:04;98356.32;;;9.29;70.29
35507;BME280;36461;52.018;21.036;2023-03-14T07:00:33;98354.46;;;9.46;69.92
35507;BME280;36461;52.018;21.036;2023-03-14T07:03:02;98355.95;;;9.58;69.59
35507;BME280;36461;52.018;21.036;2023-03-14T07:05:33;98354.81;;;9.74;69.54
35507;BME280;36461;52.018;21.036;2023-03-14T07:08:01;98353.45;;;9.91;69.16
35507;BME280;36461;52.018;21.036;2023-03-14T07:10:29;98353.36;;;10.11;68.97
35507;BME280;36461;52.018;21.036;2023-03-14T07:12:57;98359.27;;;10.39;69.07
35507;BME280;36461;52.018;21.036;2023-03-14T07:15:26;98358.93;;;10.64;68.28
35507;BME280;36461;52.018;21.036;2023-03-14T07:17:58;98360.08;;;10.86;67.94
35507;BME280;36461;52.018;21.036;2023-03-14T07:20:26;98359.98;;;11.06;67.74
35507;BME280;36461;52.018;21.036;2023-03-14T07:22:55;98353.63;;;11.23;67.47
35507;BME280;36461;52.018;21.036;2023-03-14T07:25:34;98350.11;;;11.37;66.31
35507;BME280;36461;52.018;21.036;2023-03-14T07:28:02;98351.98;;;11.42;65.76
35507;BME280;36461;52.018;21.036;2023-03-14T07:30:30;98368.55;;;11.43;65.30
35507;BME280;36461;52.018;21.036;2023-03-14T07:32:58;98366.55;;;11.39;64.96
35507;BME280;36461;52.018;21.036;2023-03-14T07:35:28;98367.95;;;11.37;64.78
35507;BME280;36461;52.018;21.036;2023-03-14T07:37:55;98365.14;;;11.37;64.43
35507;BME280;36461;52.018;21.036;2023-03-14T07:40:28;98364.27;;;11.40;63.96
35507;BME280;36461;52.018;21.036;2023-03-14T07:42:56;98377.13;;;11.37;63.38
35507;BME280;36461;52.018;21.036;2023-03-14T07:45:37;98382.09;;;11.35;63.14
35507;BME280;36461;52.018;21.036;2023-03-14T07:48:09;98379.99;;;11.35;63.38
35507;BME280;36461;52.018;21.036;2023-03-14T07:50:37;98381.27;;;11.37;63.19
35507;BME280;36461;52.018;21.036;2023-03-14T07:53:05;98372.76;;;11.40;63.03
35507;BME280;36461;52.018;21.036;2023-03-14T07:55:33;98381.23;;;11.45;62.97
35507;BME280;36461;52.018;21.036;2023-03-14T07:58:01;98379.80;;;11.56;63.06
35507;BME280;36461;52.018;21.036;2023-03-14T08:00:29;98377.06;;;11.71;62.91
35507;BME280;36461;52.018;21.036;2023-03-14T08:02:57;98371.85;;;11.79;62.73
35507;BME280;36461;52.018;21.036;2023-03-14T08:05:25;98370.15;;;11.86;62.76
35507;BME280;36461;52.018;21.036;2023-03-14T08:07:53;98377.13;;;11.93;62.67
35507;BME280;36461;52.018;21.036;2023-03-14T08:10:21;98375.31;;;12.04;62.25
35507;BME280;36461;52.018;21.036;2023-03-14T08:12:51;98369.34;;;12.23;62.10
35507;BME280;36461;52.018;21.036;2023-03-14T08:15:19;98374.07;;;12.41;61.13
35507;BME280;36461;52.018;21.036;2023-03-14T08:17:47;98376.50;;;12.61;61.56
35507;BME280;36461;52.018;21.036;2023-03-14T08:20:19;98377.20;;;12.82;61.43
35507;BME280;36461;52.018;21.036;2023-03-14T08:22:48;98374.16;;;12.95;60.83
35507;BME280;36461;52.018;21.036;2023-03-14T08:25:16;98373.67;;;12.99;60.52
35507;BME280;36461;52.018;21.036;2023-03-14T08:27:45;98374.64;;;12.93;60.20
35507;BME280;36461;52.018;21.036;2023-03-14T08:30:15;98373.22;;;12.91;60.20
35507;BME280;36461;52.018;21.036;2023-03-14T08:32:44;98377.90;;;12.87;59.65
35507;BME280;36461;52.018;21.036;2023-03-14T08:35:13;98382.64;;;12.79;59.56
35507;BME280;36461;52.018;21.036;2023-03-14T08:37:41;98381.00;;;12.72;59.53
35507;BME280;36461;52.018;21.036;2023-03-14T08:40:10;98375.95;;;12.71;59.69
35507;BME280;36461;52.018;21.036;2023-03-14T08:42:39;98378.36;;;12.69;59.69
35507;BME280;36461;52.018;21.036;2023-03-14T08:45:10;98379.33;;;12.65;59.33
35507;BME280;36461;52.018;21.036;2023-03-14T08:47:38;98377.44;;;12.65;59.47
35507;BME280;36461;52.018;21.036;2023-03-14T08:50:08;98374.70;;;12.69;59.68
35507;BME280;36461;52.018;21.036;2023-03-14T08:52:38;98367.61;;;12.75;59.46
35507;BME280;36461;52.018;21.036;2023-03-14T08:55:09;98366.34;;;12.83;59.37
35507;BME280;36461;52.018;21.036;2023-03-14T08:57:37;98368.70;;;12.86;59.29
35507;BME280;36461;52.018;21.036;2023-03-14T09:00:05;98359.13;;;12.87;59.31
35507;BME280;36461;52.018;21.036;2023-03-14T09:02:43;98363.95;;;12.90;59.46
35507;BME280;36461;52.018;21.036;2023-03-14T09:05:12;98363.71;;;12.93;59.27
35507;BME280;36461;52.018;21.036;2023-03-14T09:07:40;98359.93;;;12.97;59.02
35507;BME280;36461;52.018;21.036;2023-03-14T09:10:09;98362.85;;;13.00;59.14
35507;BME280;36461;52.018;21.036;2023-03-14T09:12:37;98357.66;;;13.02;58.67
35507;BME280;36461;52.018;21.036;2023-03-14T09:15:06;98354.23;;;13.04;58.49
35507;BME280;36461;52.018;21.036;2023-03-14T09:17:35;98349.31;;;13.09;58.79
35507;BME280;36461;52.018;21.036;2023-03-14T09:20:03;98335.15;;;13.20;58.55
35507;BME280;36461;52.018;21.036;2023-03-14T09:22:34;98337.71;;;13.27;58.14
35507;BME280;36461;52.018;21.036;2023-03-14T09:25:04;98337.83;;;13.28;58.11
35507;BME280;36461;52.018;21.036;2023-03-14T09:27:33;98333.95;;;13.31;58.03
35507;BME280;36461;52.018;21.036;2023-03-14T09:30:01;98330.92;;;13.37;57.68
35507;BME280;36461;52.018;21.036;2023-03-14T09:32:30;98327.10;;;13.44;57.54
35507;BME280;36461;52.018;21.036;2023-03-14T09:34:59;98321.05;;;13.50;57.59
35507;BME280;36461;52.018;21.036;2023-03-14T09:37:28;98324.21;;;13.58;57.29
35507;BME280;36461;52.018;21.036;2023-03-14T09:39:56;98320.34;;;13.66;56.93
35507;BME280;36461;52.018;21.036;2023-03-14T09:42:26;98314.88;;;13.74;56.81
35507;BME280;36461;52.018;21.036;2023-03-14T09:45:04;98316.02;;;13.86;56.12
35507;BME280;36461;52.018;21.036;2023-03-14T09:47:36;98309.48;;;13.98;56.24
35507;BME280;36461;52.018;21.036;2023-03-14T09:50:14;98305.55;;;14.15;56.02
35507;BME280;36461;52.018;21.036;2023-03-14T09:52:46;98299.98;;;14.32;56.29
35507;BME280;36461;52.018;21.036;2023-03-14T09:55:18;98288.68;;;14.51;56.51
35507;BME280;36461;52.018;21.036;2023-03-14T09:57:51;98286.05;;;14.69;56.30
35507;BME280;36461;52.018;21.036;2023-03-14T10:00:26;98283.67;;;14.81;55.99
35507;BME280;36461;52.018;21.036;2023-03-14T10:02:57;98280.67;;;14.90;55.58
35507;BME280;36461;52.018;21.036;2023-03-14T10:05:27;98292.14;;;14.94;55.03
35507;BME280;36461;52.018;21.036;2023-03-14T10:07:57;98287.66;;;14.96;54.62
35507;BME280;36461;52.018;21.036;2023-03-14T10:10:26;98284.19;;;14.98;54.33
35507;BME280;36461;52.018;21.036;2023-03-14T10:12:56;98294.92;;;15.05;53.65
35507;BME280;36461;52.018;21.036;2023-03-14T10:15:29;98296.89;;;15.15;53.34
35507;BME280;36461;52.018;21.036;2023-03-14T10:18:00;98297.42;;;15.33;53.48
35507;BME280;36461;52.018;21.036;2023-03-14T10:23:27;98274.77;;;15.86;52.67
35507;BME280;36461;52.018;21.036;2023-03-14T10:26:06;98272.17;;;16.04;52.07
35507;BME280;36461;52.018;21.036;2023-03-14T10:28:47;98275.13;;;16.12;51.77
35507;BME280;36461;52.018;21.036;2023-03-14T10:31:16;98273.63;;;16.23;51.67
35507;BME280;36461;52.018;21.036;2023-03-14T10:33:58;98267.86;;;16.41;51.55
35507;BME280;36461;52.018;21.036;2023-03-14T10:36:29;98266.45;;;16.64;51.59
35507;BME280;36461;52.018;21.036;2023-03-14T10:39:18;98268.77;;;16.77;50.93
35507;BME280;36461;52.018;21.036;2023-03-14T10:41:56;98262.34;;;16.96;49.63
35507;BME280;36461;52.018;21.036;2023-03-14T10:44:30;98260.52;;;16.95;49.18
35507;BME280;36461;52.018;21.036;2023-03-14T10:47:01;98272.54;;;16.81;48.59
35507;BME280;36461;52.018;21.036;2023-03-14T10:49:35;98272.58;;;16.66;48.54
35507;BME280;36461;52.018;21.036;2023-03-14T10:52:20;98276.45;;;16.54;48.58
35507;BME280;36461;52.018;21.036;2023-03-14T10:55:10;98276.93;;;16.54;48.84
35507;BME280;36461;52.018;21.036;2023-03-14T10:57:42;98275.52;;;16.60;49.21
35507;BME280;36461;52.018;21.036;2023-03-14T11:00:15;98281.76;;;16.65;48.57
35507;BME280;36461;52.018;21.036;2023-03-14T11:08:10;98272.18;;;16.41;48.24
35507;BME280;36461;52.018;21.036;2023-03-14T11:10:45;98274.11;;;16.48;48.87
35507;BME280;36461;52.018;21.036;2023-03-14T11:13:30;98277.84;;;16.63;48.82
35507;BME280;36461;52.018;21.036;2023-03-14T11:16:27;98277.35;;;16.76;48.55
35507;BME280;36461;52.018;21.036;2023-03-14T11:32:24;98265.94;;;17.58;47.37
35507;BME280;36461;52.018;21.036;2023-03-14T11:34:56;98265.60;;;17.82;47.02
35507;BME280;36461;52.018;21.036;2023-03-14T11:37:34;98256.96;;;17.88;47.04
35507;BME280;36461;52.018;21.036;2023-03-14T11:40:21;98251.71;;;17.84;47.28
35507;BME280;36461;52.018;21.036;2023-03-14T11:43:39;98253.30;;;17.83;47.49
35507;BME280;36461;52.018;21.036;2023-03-14T11:46:07;98262.89;;;17.57;46.84
35507;BME280;36461;52.018;21.036;2023-03-14T11:49:13;98272.52;;;17.29;47.14
35507;BME280;36461;52.018;21.036;2023-03-14T11:51:49;98277.52;;;16.86;46.60
35507;BME280;36461;52.018;21.036;2023-03-14T11:57:05;98273.30;;;16.50;47.46
35507;BME280;36461;52.018;21.036;2023-03-14T12:02:22;98275.02;;;16.58;47.78
35507;BME280;36461;52.018;21.036;2023-03-14T12:05:31;98284.60;;;16.60;47.94
35507;BME280;36461;52.018;21.036;2023-03-14T12:10:46;98275.29;;;16.68;48.43
35507;BME280;36461;52.018;21.036;2023-03-14T12:13:16;98279.77;;;16.83;48.42
35507;BME280;36461;52.018;21.036;2023-03-14T12:15:53;98276.70;;;16.84;48.06
35507;BME280;36461;52.018;21.036;2023-03-14T12:18:36;98269.81;;;16.88;47.85
35507;BME280;36461;52.018;21.036;2023-03-14T12:21:09;98282.61;;;16.78;47.82
35507;BME280;36461;52.018;21.036;2023-03-14T12:23:49;98282.56;;;16.75;47.69
35507;BME280;36461;52.018;21.036;2023-03-14T12:26:23;98274.02;;;16.75;47.79
35507;BME280;36461;52.018;21.036;2023-03-14T12:29:11;98278.93;;;16.71;48.00
35507;BME280;36461;52.018;21.036;2023-03-14T12:31:47;98285.42;;;16.66;47.93
35507;BME280;36461;52.018;21.036;2023-03-14T12:42:54;98288.30;;;15.83;48.60
35507;BME280;36461;52.018;21.036;2023-03-14T12:47:45;98283.92;;;15.87;48.70
35507;BME280;36461;52.018;21.036;2023-03-14T12:50:27;98281.59;;;15.71;48.62
35507;BME280;36461;52.018;21.036;2023-03-14T12:55:53;98283.19;;;15.43;48.64
35507;BME280;36461;52.018;21.036;2023-03-14T12:58:35;98291.80;;;15.23;48.95
35507;BME280;36461;52.018;21.036;2023-03-14T13:01:07;98295.30;;;15.06;49.18
35507;BME280;36461;52.018;21.036;2023-03-14T13:03:50;98311.58;;;14.95;49.60
35507;BME280;36461;52.018;21.036;2023-03-14T13:06:53;98311.61;;;14.82;50.11
35507;BME280;36461;52.018;21.036;2023-03-14T13:12:10;98312.45;;;14.59;50.86
35507;BME280;36461;52.018;21.036;2023-03-14T13:14:45;98309.02;;;14.54;51.54
35507;BME280;36461;52.018;21.036;2023-03-14T13:17:15;98313.17;;;14.50;51.97
35507;BME280;36461;52.018;21.036;2023-03-14T13:20:05;98317.85;;;14.50;52.58
35507;BME280;36461;52.018;21.036;2023-03-14T13:22:37;98320.56;;;14.42;52.94
35507;BME280;36461;52.018;21.036;2023-03-14T13:25:10;98320.11;;;14.31;53.11
35507;BME280;36461;52.018;21.036;2023-03-14T13:27:40;98324.13;;;14.19;53.41
35507;BME280;36461;52.018;21.036;2023-03-14T13:30:17;98319.85;;;14.08;53.71
35507;BME280;36461;52.018;21.036;2023-03-14T13:32:46;98313.06;;;13.99;54.28
35507;BME280;36461;52.018;21.036;2023-03-14T13:35:18;98316.48;;;13.96;54.50
35507;BME280;36461;52.018;21.036;2023-03-14T13:37:51;98318.02;;;13.89;54.83
35507;BME280;36461;52.018;21.036;2023-03-14T13:40:36;98319.52;;;13.86;55.43
35507;BME280;36461;52.018;21.036;2023-03-14T13:48:26;98332.29;;;13.71;56.67
35507;BME280;36461;52.018;21.036;2023-03-14T13:51:03;98328.66;;;13.64;56.39
35507;BME280;36461;52.018;21.036;2023-03-14T13:53:41;98330.54;;;13.55;56.86
35507;BME280;36461;52.018;21.036;2023-03-14T13:56:11;98335.52;;;13.43;56.94
35507;BME280;36461;52.018;21.036;2023-03-14T13:58:40;98337.49;;;13.30;57.19
35507;BME280;36461;52.018;21.036;2023-03-14T14:03:55;98337.16;;;13.07;57.67
35507;BME280;36461;52.018;21.036;2023-03-14T14:06:34;98334.94;;;13.02;58.25
35507;BME280;36461;52.018;21.036;2023-03-14T14:09:15;98329.08;;;12.96;58.70
35507;BME280;36461;52.018;21.036;2023-03-14T14:12:05;98328.98;;;12.88;59.21
35507;BME280;36461;52.018;21.036;2023-03-14T14:14:52;98323.11;;;12.79;59.55
35507;BME280;36461;52.018;21.036;2023-03-14T14:17:27;98319.85;;;12.76;60.31
35507;BME280;36461;52.018;21.036;2023-03-14T14:19:56;98316.69;;;12.74;60.80
35507;BME280;36461;52.018;21.036;2023-03-14T14:22:25;98320.93;;;12.66;60.95
35507;BME280;36461;52.018;21.036;2023-03-14T14:24:54;98322.33;;;12.56;61.47
35507;BME280;36461;52.018;21.036;2023-03-14T14:27:36;98320.62;;;12.51;62.01
35507;BME280;36461;52.018;21.036;2023-03-14T14:30:25;98313.95;;;12.43;62.47
35507;BME280;36461;52.018;21.036;2023-03-14T14:33:16;98314.94;;;12.39;62.94
35507;BME280;36461;52.018;21.036;2023-03-14T14:35:55;98311.45;;;12.34;63.27